createdAt,value
2023-01-02T00:00:53.653Z,78.96
2023-01-02T00:05:55.721Z,79.25
2023-01-02T00:10:57.993Z,79.28
2023-01-02T00:16:01.346Z,79.42
2023-01-02T00:21:05.329Z,79.45
2023-01-02T00:26:07.424Z,79.22
2023-01-02T00:31:13.795Z,79.09
2023-01-02T00:36:15.851Z,79.51
2023-01-02T00:41:19.053Z,80.21
2023-01-02T00:46:20.876Z,80.39
2023-01-02T00:51:22.595Z,80.55
2023-01-02T00:56:24.377Z,80.66
2023-01-02T01:01:26.309Z,80.79
2023-01-02T01:06:28.236Z,81.06
2023-01-02T01:11:30.045Z,81.23
2023-01-02T01:16:32.517Z,81.46
2023-01-02T01:21:34.256Z,81.52
2023-01-02T01:26:35.953Z,81.67
2023-01-02T01:31:37.701Z,81.87
2023-01-02T01:36:39.634Z,81.94
2023-01-02T01:41:41.339Z,82.04
2023-01-02T01:46:45.277Z,81.91
2023-01-02T01:51:54.186Z,82.05
2023-01-02T01:57:01.857Z,82.14
2023-01-02T02:02:03.904Z,82.40
2023-01-02T02:07:06.159Z,82.55
2023-01-02T02:12:08.716Z,82.39
2023-01-02T02:17:22.437Z,82.50
2023-01-02T02:22:42.791Z,81.85
2023-01-02T02:27:59.641Z,80.65
2023-01-02T02:33:15.554Z,81.34
2023-01-02T02:38:52.279Z,82.07
2023-01-02T02:44:31.303Z,82.10
2023-01-02T02:49:58.019Z,81.90
2023-01-02T02:55:22.273Z,81.93
2023-01-02T03:00:24.717Z,81.74
2023-01-02T03:05:35.104Z,81.93
2023-01-02T03:10:50.108Z,82.58
2023-01-02T03:16:09.647Z,82.96
2023-01-02T03:21:18.685Z,82.46
2023-01-02T03:26:26.051Z,82.00
2023-01-02T03:31:34.410Z,82.85
2023-01-02T03:36:40.267Z,83.09
2023-01-02T03:41:48.781Z,83.12
2023-01-02T03:47:15.171Z,83.08
2023-01-02T03:52:21.016Z,82.66
2023-01-02T03:57:38.217Z,83.38
2023-01-02T04:03:26.242Z,83.60
2023-01-02T04:08:37.978Z,83.90
2023-01-02T04:13:44.343Z,83.88
2023-01-02T04:18:58.207Z,83.65
2023-01-02T04:24:09.409Z,83.66
2023-01-02T04:29:11.573Z,82.17
2023-01-02T04:34:16.400Z,81.66
2023-01-02T04:39:21.773Z,81.77
2023-01-02T04:44:24.127Z,81.79
2023-01-02T04:49:27.223Z,82.42
2023-01-02T04:54:29.078Z,83.20
2023-01-02T04:59:30.858Z,83.29
2023-01-02T05:04:32.556Z,83.31
2023-01-02T05:09:34.411Z,83.04
2023-01-02T05:14:36.147Z,82.86
2023-01-02T05:19:37.857Z,83.31
2023-01-02T05:24:39.543Z,83.57
2023-01-02T05:29:41.323Z,83.73
2023-01-02T05:34:43.063Z,83.82
2023-01-02T05:39:44.787Z,83.85
2023-01-02T05:44:47.044Z,83.96
2023-01-02T05:49:48.772Z,83.97
2023-01-02T05:54:50.594Z,83.79
2023-01-02T05:59:52.356Z,83.74
2023-01-02T06:04:54.064Z,83.66
2023-01-02T06:09:55.781Z,82.71
2023-01-02T06:14:57.464Z,82.38
2023-01-02T06:19:59.196Z,82.94
2023-01-02T06:25:00.875Z,83.80
2023-01-02T06:30:05.322Z,84.27
2023-01-02T06:35:07.287Z,84.24
2023-01-02T06:40:09.173Z,84.15
2023-01-02T06:45:11.413Z,84.07
2023-01-02T06:50:13.234Z,83.87
2023-01-02T06:55:14.968Z,83.79
2023-01-02T07:00:18.986Z,83.83
2023-01-02T07:05:24.574Z,84.28
2023-01-02T07:10:26.610Z,84.57
2023-01-02T07:15:28.579Z,84.76
2023-01-02T07:20:30.303Z,84.74
2023-01-02T07:25:32.071Z,84.84
2023-01-02T07:30:33.807Z,84.76
2023-01-02T07:35:35.584Z,84.88
2023-01-02T07:40:37.292Z,84.99
2023-01-02T07:45:39.048Z,85.00
2023-01-02T07:50:41.324Z,84.99
2023-01-02T07:55:43.248Z,84.88
2023-01-02T08:00:44.934Z,84.76
2023-01-02T08:05:46.734Z,83.91
2023-01-02T08:10:48.510Z,83.03
2023-01-02T08:15:50.203Z,82.48
2023-01-02T08:20:51.957Z,82.50
2023-01-02T08:25:57.849Z,81.87
2023-01-02T08:31:00.528Z,81.60
2023-01-02T08:36:02.380Z,81.09
2023-01-02T08:41:04.299Z,81.42
2023-01-02T08:46:08.138Z,81.52
2023-01-02T08:51:09.934Z,80.92
2023-01-02T08:56:17.869Z,80.82
2023-01-02T09:01:20.017Z,80.72
2023-01-02T09:06:23.869Z,80.51
2023-01-02T09:11:26.939Z,80.00
2023-01-02T09:16:28.857Z,79.58
2023-01-02T09:21:30.691Z,78.95
2023-01-02T09:26:32.477Z,78.27
2023-01-02T09:31:34.719Z,77.74
2023-01-02T09:36:36.833Z,77.12
2023-01-02T09:41:42.359Z,76.24
2023-01-02T09:46:57.136Z,75.82
2023-01-02T09:51:59.176Z,75.42
2023-01-02T09:57:27.712Z,74.90
2023-01-02T10:02:35.635Z,74.74
2023-01-02T10:08:01.555Z,74.24
2023-01-02T10:13:18.876Z,74.05
2023-01-02T10:18:29.951Z,73.91
2023-01-02T10:23:54.066Z,73.70
2023-01-02T10:29:24.045Z,73.15
2023-01-02T10:34:41.658Z,72.81
2023-01-02T10:39:46.439Z,72.53
2023-01-02T10:44:48.333Z,72.38
2023-01-02T10:49:52.171Z,72.17
2023-01-02T10:54:59.908Z,71.87
2023-01-02T11:00:04.377Z,71.57
2023-01-02T11:05:16.123Z,71.53
2023-01-02T11:10:33.161Z,71.20
2023-01-02T11:15:43.441Z,71.11
2023-01-02T11:20:52.257Z,70.50
2023-01-02T11:25:54.642Z,69.78
2023-01-02T11:31:15.063Z,69.83
2023-01-02T11:36:18.636Z,69.26
2023-01-02T11:41:49.053Z,68.36
2023-01-02T11:46:52.036Z,68.13
2023-01-02T11:52:01.850Z,67.84
2023-01-02T11:57:04.086Z,67.87
2023-01-02T12:02:20.429Z,67.89
2023-01-02T12:07:46.860Z,67.84
2023-01-02T12:13:00.595Z,67.49
2023-01-02T12:18:11.376Z,67.56
2023-01-02T12:23:45.884Z,67.49
2023-01-02T12:29:09.415Z,67.35
2023-01-02T12:34:26.404Z,66.83
2023-01-02T12:39:30.906Z,66.37
2023-01-02T12:44:48.113Z,66.33
2023-01-02T12:49:59.016Z,66.31
2023-01-02T12:55:19.665Z,66.20
2023-01-02T13:00:36.006Z,66.61
2023-01-02T13:05:51.320Z,66.68
2023-01-02T13:10:54.510Z,66.88
2023-01-02T13:16:03.760Z,66.84
2023-01-02T13:21:21.209Z,66.71
2023-01-02T13:26:26.280Z,66.69
2023-01-02T13:31:48.219Z,66.87
2023-01-02T13:36:57.748Z,67.15
2023-01-02T13:42:21.313Z,67.24
2023-01-02T13:47:34.894Z,67.31
2023-01-02T13:52:37.571Z,67.54
2023-01-02T13:57:39.301Z,67.62
2023-01-02T14:02:41.042Z,67.63
2023-01-02T14:07:45.837Z,67.88
2023-01-02T14:12:57.562Z,68.14
2023-01-02T14:18:05.861Z,68.47
2023-01-02T14:23:10.821Z,68.74
2023-01-02T14:28:21.833Z,68.94
2023-01-02T14:33:33.694Z,69.15
2023-01-02T14:38:41.392Z,69.50
2023-01-02T14:43:45.001Z,69.84
2023-01-02T14:49:25.028Z,70.12
2023-01-02T14:54:42.368Z,70.58
2023-01-02T14:59:48.830Z,70.51
2023-01-02T15:04:57.005Z,71.21
2023-01-02T15:10:04.184Z,71.82
2023-01-02T15:15:09.082Z,72.30
2023-01-02T15:20:26.501Z,72.92
2023-01-02T15:25:37.810Z,73.34
2023-01-02T15:30:40.324Z,73.60
2023-01-02T15:35:42.128Z,73.53
2023-01-02T15:40:44.863Z,73.71
2023-01-02T15:45:51.346Z,74.22
2023-01-02T15:50:56.165Z,74.58
2023-01-02T15:55:58.713Z,74.87
2023-01-02T16:01:16.273Z,75.47
2023-01-02T16:06:24.086Z,75.38
2023-01-02T16:11:26.847Z,75.67
2023-01-02T16:16:48.593Z,75.88
2023-01-02T16:21:59.952Z,76.17
2023-01-02T16:27:02.247Z,75.94
2023-01-02T16:32:03.995Z,76.01
2023-01-02T16:37:28.771Z,76.18
2023-01-02T16:42:36.823Z,77.14
2023-01-02T16:47:40.977Z,77.48
2023-01-02T16:52:43.368Z,77.80
2023-01-02T16:57:45.114Z,78.13
2023-01-02T17:02:47.660Z,78.30
2023-01-02T17:07:49.591Z,78.63
2023-01-02T17:12:51.391Z,78.45
2023-01-02T17:17:53.076Z,78.66
2023-01-02T17:22:55.126Z,78.79
2023-01-02T17:27:57.408Z,78.81
2023-01-02T17:33:03.937Z,79.22
2023-01-02T17:38:07.061Z,79.12
2023-01-02T17:43:08.735Z,79.30
2023-01-02T17:48:12.842Z,79.26
2023-01-02T17:53:16.006Z,79.66
2023-01-02T17:58:17.835Z,79.69
2023-01-02T18:03:19.585Z,79.72
2023-01-02T18:08:21.866Z,79.82
2023-01-02T18:13:23.750Z,79.98
2023-01-02T18:18:27.572Z,80.03
2023-01-02T18:23:29.298Z,80.47
2023-01-02T18:28:30.975Z,80.88
2023-01-02T18:33:33.278Z,81.12
2023-01-02T18:38:38.145Z,80.98
2023-01-02T18:43:41.640Z,81.13
2023-01-02T18:48:43.873Z,80.91
2023-01-02T18:53:54.321Z,80.90
2023-01-02T18:59:14.212Z,81.06
2023-01-02T19:04:28.211Z,81.37
2023-01-02T19:09:36.580Z,81.70
2023-01-02T19:14:41.206Z,81.70
2023-01-02T19:19:44.400Z,81.58
2023-01-02T19:24:46.596Z,81.84
2023-01-02T19:29:49.293Z,82.03
2023-01-02T19:34:52.874Z,82.05
2023-01-02T19:39:57.337Z,82.23
2023-01-02T19:45:00.969Z,82.05
2023-01-02T19:50:05.181Z,82.07
2023-01-02T19:55:08.499Z,82.41
2023-01-02T20:00:13.981Z,82.56
2023-01-02T20:05:21.350Z,82.42
2023-01-02T20:10:24.708Z,82.56
2023-01-02T20:15:28.303Z,82.49
2023-01-02T20:20:30.254Z,82.65
2023-01-02T20:25:33.194Z,82.74
2023-01-02T20:30:35.018Z,82.93
2023-01-02T20:35:36.716Z,82.74
2023-01-02T20:40:38.404Z,82.88
2023-01-02T20:45:40.252Z,82.90
2023-01-02T20:50:42.068Z,83.11
2023-01-02T20:55:44.564Z,83.24
2023-01-02T21:00:47.525Z,83.31
2023-01-02T21:05:49.284Z,83.37
2023-01-02T21:10:51.110Z,83.40
2023-01-02T21:15:53.003Z,83.29
2023-01-02T21:21:17.689Z,83.24
2023-01-02T21:26:21.828Z,83.21
2023-01-02T21:31:23.700Z,83.29
2023-01-02T21:36:25.438Z,83.20
2023-01-02T21:41:45.928Z,83.31
2023-01-02T21:46:47.673Z,83.51
2023-01-02T21:51:49.348Z,83.48
2023-01-02T21:56:51.092Z,83.32
2023-01-02T22:01:54.524Z,83.23
2023-01-02T22:12:21.981Z,83.54
2023-01-02T22:17:23.739Z,83.75
2023-01-02T22:22:25.595Z,83.77
2023-01-02T22:27:28.650Z,83.94
2023-01-02T22:32:34.374Z,83.79
2023-01-02T22:37:36.283Z,83.45
2023-01-02T22:43:10.432Z,83.49
2023-01-02T22:48:20.610Z,83.68
2023-01-02T22:53:34.410Z,83.87
2023-01-02T22:58:36.135Z,84.10
2023-01-02T23:03:42.600Z,84.06
2023-01-02T23:08:44.454Z,84.25
2023-01-02T23:13:50.275Z,84.05
2023-01-02T23:19:14.939Z,84.13
2023-01-02T23:24:20.054Z,84.23
2023-01-02T23:29:23.231Z,84.33
2023-01-02T23:34:27.447Z,84.35
2023-01-02T23:39:31.041Z,84.32
2023-01-02T23:44:32.727Z,84.23
2023-01-02T23:49:34.388Z,84.16
2023-01-02T23:54:36.091Z,84.15
2023-01-02T23:59:37.816Z,84.15
